Terminal Aerodrome Forecast
Issued by NWS Quad Cities IA IL

Home | Current Version | Previous Version | Graphics & Text | Print | Product List | Glossary On
Versions: 1 2 3 4 5 6 7 8 9 10 11 12 13 14 15 16 17 18 19 20 21 22
000
FTUS43 KDVN 030700 AAA
TAFMLI
TAF AMD
KMLI 030738Z 0308/0406 15007KT P6SM -FZRASNPL OVC050
     FM031000 15012KT P6SM -FZRASNPL OVC030
      TEMPO 0310/0314 2SM -FZRASNPL BR OVC020
     FM031400 18015G22KT 5SM -RA BR OVC012
     FM031700 22011KT 5SM BR OVC015
     FM032200 28014KT P6SM OVC022=

USA.gov is the U.S. government's official web portal to all federal, state and local government web resources and services.